Time;durP1;ratioP1;P1;durP2;ratioP2;P2;SDS_P1;SDS_P2;PMS_P1;PMS_P2;Temp;Humidity;BMP_temperature;BMP_pressure;BME280_temperature;BME280_humidity;BME280_pressure;Samples;Min_cycle;Max_cycle;Signal;HPM_P1;HPM_P2
2023/07/05 00:00:33;;;;;;;13.15;6.30;;;18.70;85.70;;;19.54;62.33;99673.97;4970014;28;20077;-81
2023/07/05 00:03:00;;;;;;;10.93;6.03;;;18.80;85.80;;;19.56;63.27;99668.28;4961350;28;20051;-82
2023/07/05 00:05:27;;;;;;;9.48;5.47;;;18.80;86.50;;;19.51;63.09;99660.22;4966790;28;20050;-82
2023/07/05 00:07:55;;;;;;;10.02;5.13;;;18.80;86.30;;;19.51;63.65;99655.63;4974636;28;20054;-82
2023/07/05 00:10:22;;;;;;;11.52;5.43;;;18.80;86.70;;;19.50;64.08;99648.59;4970935;28;20049;-82
2023/07/05 00:12:49;;;;;;;8.43;5.30;;;18.80;87.30;;;19.51;63.63;99647.50;4969839;28;20046;-82
2023/07/05 00:15:16;;;;;;;10.57;5.55;;;18.80;86.80;;;19.55;64.37;99642.31;4969983;28;20137;-82
2023/07/05 00:17:45;;;;;;;8.73;4.60;;;18.80;87.60;;;19.49;64.85;99636.19;4968330;28;20066;-82
2023/07/05 00:20:13;;;;;;;9.23;4.60;;;18.80;87.80;;;19.54;64.99;99622.59;4975331;28;20125;-82
2023/07/05 00:22:41;;;;;;;9.38;4.75;;;18.80;88.20;;;19.61;64.93;99622.25;4972055;28;20043;-82
2023/07/05 00:25:09;;;;;;;7.90;4.28;;;18.90;88.80;;;19.64;65.37;99615.47;4966590;28;20089;-82
2023/07/05 00:27:36;;;;;;;8.75;4.70;;;18.90;88.70;;;19.67;65.24;99609.47;4975622;28;20106;-82
2023/07/05 00:30:04;;;;;;;7.38;4.35;;;18.90;89.20;;;19.68;65.21;99601.06;4988768;28;20038;-82
2023/07/05 00:32:33;;;;;;;11.65;4.93;;;18.90;89.10;;;19.69;65.61;99607.28;4968425;28;20133;-81
2023/07/05 00:35:01;;;;;;;7.00;4.38;;;18.90;89.30;;;19.69;65.92;99615.41;4972701;28;20062;-83
2023/07/05 00:37:28;;;;;;;7.85;4.60;;;18.90;89.90;;;19.69;66.05;99615.41;4993880;28;20070;-83
2023/07/05 00:39:56;;;;;;;11.38;4.50;;;18.90;89.90;;;19.69;66.05;99604.56;4977143;28;20050;-83
2023/07/05 00:42:25;;;;;;;9.30;4.22;;;18.90;90.30;;;19.68;66.80;99601.06;4970534;28;20126;-83
2023/07/05 00:45:49;;;;;;;8.57;4.28;;;18.90;91.00;;;19.67;66.59;99583.22;4973846;28;20050;-83
2023/07/05 00:48:19;;;;;;;8.70;3.90;;;18.90;91.00;;;19.63;67.34;99582.19;4979748;28;20179;-83
2023/07/05 00:50:53;;;;;;;9.15;3.90;;;18.80;91.30;;;19.59;67.45;99574.94;4971121;28;20496;-83
2023/07/05 00:53:21;;;;;;;9.50;3.53;;;18.80;91.60;;;19.59;67.56;99566.81;4986609;28;20134;-83
2023/07/05 00:55:59;;;;;;;9.05;3.60;;;18.80;91.60;;;19.59;67.92;99566.81;4970329;28;20598;-83
2023/07/05 00:58:26;;;;;;;6.93;3.85;;;18.80;92.00;;;19.59;67.35;99556.00;4973157;28;20579;-83
2023/07/05 01:00:54;;;;;;;10.50;4.03;;;18.80;91.80;;;19.59;68.06;99542.47;4972205;28;20126;-83
2023/07/05 01:03:26;;;;;;;8.75;4.10;;;18.80;92.20;;;19.59;67.99;99550.59;4988058;28;20051;-83
2023/07/05 01:05:59;;;;;;;7.35;3.67;;;18.80;92.20;;;19.55;68.38;99548.47;4987859;28;20465;-83
2023/07/05 01:08:26;;;;;;;7.00;3.80;;;18.80;92.40;;;19.56;67.96;99541.94;4973301;28;20046;-82
2023/07/05 01:11:07;;;;;;;7.10;3.67;;;18.80;92.50;;;19.58;68.09;99540.88;4972053;28;20069;-83
2023/07/05 01:13:42;;;;;;;7.85;4.28;;;18.80;92.40;;;19.55;68.66;99531.44;4963693;28;20047;-83
2023/07/05 01:16:28;;;;;;;11.00;3.78;;;18.80;92.80;;;19.53;68.63;99520.91;4972717;28;20114;-83
2023/07/05 01:19:07;;;;;;;8.15;3.70;;;18.80;92.60;;;19.45;69.43;99518.06;4973065;28;20117;-83
2023/07/05 01:21:47;;;;;;;6.05;3.28;;;18.70;93.60;;;19.40;69.19;99513.53;4970670;28;20101;-83
2023/07/05 01:24:54;;;;;;;11.27;3.23;;;18.70;93.60;;;19.43;69.20;99510.25;4979585;28;20606;-83
2023/07/05 01:27:52;;;;;;;6.97;3.28;;;18.70;93.50;;;19.37;69.54;99500.59;4974777;28;20101;-82
2023/07/05 01:30:51;;;;;;;6.75;3.35;;;18.70;93.80;;;19.31;70.08;99504.47;4963830;28;20109;-83
2023/07/05 01:33:27;;;;;;;5.55;3.08;;;18.60;94.30;;;19.26;70.63;99501.84;4971938;28;20118;-83
2023/07/05 01:35:56;;;;;;;6.32;3.05;;;18.60;94.50;;;19.29;70.15;99490.44;4983012;28;20046;-82
2023/07/05 01:38:24;;;;;;;6.18;3.35;;;18.60;94.50;;;19.32;70.63;99492.53;4994300;28;20073;-82
2023/07/05 01:41:01;;;;;;;6.05;3.17;;;18.60;94.60;;;19.36;70.29;99490.88;4973646;28;20051;-83
2023/07/05 01:43:31;;;;;;;5.15;3.05;;;18.70;94.40;;;19.35;69.93;99483.84;4965547;28;20053;-83
2023/07/05 01:46:25;;;;;;;7.38;2.90;;;18.70;94.00;;;19.38;70.23;99468.97;4973400;28;20120;-83
2023/07/05 01:49:33;;;;;;;9.55;3.17;;;18.70;94.20;;;19.26;70.24;99458.56;4959892;28;20113;-83
2023/07/05 01:52:10;;;;;;;5.97;2.92;;;18.60;94.40;;;19.25;70.67;99449.66;4977969;28;20054;-84
2023/07/05 01:54:47;;;;;;;6.40;3.22;;;18.60;94.80;;;19.29;70.58;99439.06;4991441;28;20078;-83
2023/07/05 01:57:22;;;;;;;7.25;3.00;;;18.60;94.70;;;19.27;70.62;99425.03;4978964;28;20070;-83
2023/07/05 01:59:55;;;;;;;7.05;3.40;;;18.60;94.60;;;19.31;70.52;99420.66;4993506;28;20475;-83
2023/07/05 02:02:28;;;;;;;5.70;2.90;;;18.70;94.40;;;19.35;69.91;99424.38;4967063;28;20105;-83
2023/07/05 02:04:59;;;;;;;4.00;2.28;;;18.70;94.20;;;19.33;70.52;99413.06;4970230;28;20051;-83
2023/07/05 02:07:27;;;;;;;6.13;2.88;;;18.70;94.70;;;19.34;70.82;99408.44;4971798;28;20046;-83
2023/07/05 02:09:55;;;;;;;5.72;2.67;;;18.70;94.90;;;19.34;70.70;99408.44;4975968;28;20129;-83
2023/07/05 02:12:23;;;;;;;5.28;2.55;;;18.60;94.80;;;19.29;70.75;99399.31;4985340;28;20071;-83
2023/07/05 02:14:52;;;;;;;4.68;2.53;;;18.60;94.80;;;19.26;71.11;99402.59;4986252;28;20141;-83
2023/07/05 02:17:20;;;;;;;4.13;2.42;;;18.60;95.00;;;19.24;70.80;99410.22;4980547;28;20043;-83
2023/07/05 02:19:48;;;;;;;5.25;2.35;;;18.60;95.00;;;19.20;71.17;99395.69;4963087;28;20097;-83
2023/07/05 02:22:16;;;;;;;4.85;2.65;;;18.50;95.20;;;19.24;70.82;99404.00;4979973;28;20048;-83
2023/07/05 02:24:45;;;;;;;4.78;2.30;;;18.60;95.00;;;19.21;71.34;99410.00;4970287;28;20514;-84
2023/07/05 02:27:12;;;;;;;5.65;2.30;;;18.60;95.60;;;19.13;72.16;99403.38;4972450;28;20066;-83
2023/07/05 02:29:39;;;;;;;4.53;2.10;;;18.50;96.00;;;19.08;71.75;99387.22;4979098;28;20226;-83
2023/07/05 02:32:10;;;;;;;4.93;2.28;;;18.50;95.70;;;19.01;72.40;99381.38;4971756;28;20074;-83
2023/07/05 02:34:41;;;;;;;4.75;2.00;;;18.50;96.00;;;18.97;72.60;99391.97;4970510;28;20586;-83
2023/07/05 02:37:08;;;;;;;5.55;2.40;;;18.50;96.10;;;19.02;72.06;99399.19;4998270;23;20545;-80
2023/07/05 02:39:37;;;;;;;5.97;2.75;;;18.50;95.80;;;19.04;72.15;99395.13;4928576;29;20052;-83
2023/07/05 02:42:05;;;;;;;4.80;2.45;;;18.60;96.00;;;19.04;72.70;99400.53;4946010;29;20083;-83
2023/07/05 02:44:33;;;;;;;4.20;2.40;;;18.60;96.20;;;19.08;72.31;99403.44;4930735;29;20075;-82
2023/07/05 02:47:00;;;;;;;5.13;2.20;;;18.50;96.20;;;19.13;72.62;99405.25;4931926;29;20123;-82
2023/07/05 02:49:27;;;;;;;7.43;2.40;;;18.50;96.60;;;19.10;72.65;99390.44;4948179;29;20043;-83
2023/07/05 02:51:56;;;;;;;5.25;2.40;;;18.50;96.50;;;19.13;72.37;99397.13;4931068;29;20078;-83
2023/07/05 02:54:23;;;;;;;7.55;2.40;;;18.50;96.30;;;19.13;72.37;99389.84;4931833;29;20050;-83
2023/07/05 02:56:51;;;;;;;5.10;2.30;;;18.50;96.30;;;19.14;72.39;99391.47;4931255;29;20056;-82
2023/07/05 02:59:19;;;;;;;4.32;2.45;;;18.60;96.40;;;19.18;72.60;99397.06;4928012;29;20048;-83
2023/07/05 03:01:46;;;;;;;5.20;2.53;;;18.60;96.60;;;19.19;72.83;99406.78;4925856;29;20142;-83
2023/07/05 03:04:14;;;;;;;5.45;2.50;;;18.60;96.70;;;19.19;72.69;99401.38;4930774;29;20111;-83
2023/07/05 03:06:41;;;;;;;5.03;2.20;;;18.60;96.60;;;19.18;73.08;99400.59;4927691;29;20077;-83
2023/07/05 03:09:09;;;;;;;6.22;2.63;;;18.60;97.00;;;19.13;73.54;99405.25;4936166;29;20435;-83
2023/07/05 03:11:37;;;;;;;5.55;2.85;;;18.60;97.10;;;19.15;72.94;99403.06;4937843;28;20043;-82
2023/07/05 03:14:05;;;;;;;6.18;2.67;;;18.60;96.80;;;19.13;73.44;99397.13;4935365;29;20523;-83
2023/07/05 03:16:33;;;;;;;6.85;2.65;;;18.60;97.00;;;19.08;73.08;99392.63;4926877;29;20047;-82
2023/07/05 03:19:00;;;;;;;6.35;2.90;;;18.50;96.80;;;19.06;73.42;99402.94;4939683;29;20118;-83
2023/07/05 03:21:27;;;;;;;4.75;2.63;;;18.50;97.20;;;18.96;73.68;99395.78;4942502;29;20106;-82
2023/07/05 03:23:54;;;;;;;6.72;2.65;;;18.50;97.50;;;18.98;73.90;99400.88;4940100;28;20052;-82
2023/07/05 03:26:23;;;;;;;5.68;2.63;;;18.50;97.40;;;18.99;74.20;99414.13;4937822;29;20055;-83
2023/07/05 03:28:50;;;;;;;6.35;2.78;;;18.50;97.90;;;18.97;74.02;99413.59;4937050;29;20055;-82
2023/07/05 03:31:19;;;;;;;6.80;2.83;;;18.40;97.90;;;18.93;74.03;99426.06;4929947;28;20048;-82
2023/07/05 03:33:46;;;;;;;5.35;2.50;;;18.40;97.90;;;18.92;73.89;99431.78;4928740;29;20044;-82
2023/07/05 03:36:17;;;;;;;4.20;2.50;;;18.40;97.60;;;18.94;73.73;99435.00;4936908;29;20134;-82
2023/07/05 03:38:46;;;;;;;4.28;2.50;;;18.40;97.20;;;18.93;73.59;99434.19;4939215;29;20058;-82
2023/07/05 03:41:16;;;;;;;4.50;2.50;;;18.40;97.50;;;18.71;73.01;99442.88;4939277;28;20138;-82
2023/07/05 03:43:46;;;;;;;4.68;2.50;;;18.20;96.80;;;18.61;72.95;99453.75;4941084;29;20530;-82
2023/07/05 03:46:15;;;;;;;6.40;2.35;;;18.20;96.60;;;18.65;72.70;99481.00;4940681;28;20043;-82
2023/07/05 03:48:49;;;;;;;4.10;1.95;;;18.20;96.40;;;18.64;70.72;99479.38;4934582;29;20047;-82
2023/07/05 03:51:19;;;;;;;4.45;2.10;;;18.20;95.10;;;18.39;69.35;99497.47;4940695;28;20133;-82
2023/07/05 03:53:50;;;;;;;4.82;1.85;;;18.00;93.20;;;18.20;67.33;99499.31;4937382;29;20134;-82
2023/07/05 03:56:17;;;;;;;4.07;1.87;;;17.80;90.90;;;18.18;67.14;99509.59;4932662;28;20054;-82
2023/07/05 03:58:45;;;;;;;6.75;2.53;;;17.70;91.40;;;18.10;66.21;99518.28;4936873;29;20307;-82
2023/07/05 04:01:17;;;;;;;4.93;2.22;;;17.60;90.60;;;17.98;66.21;99530.28;4940774;28;20051;-82
2023/07/05 04:03:48;;;;;;;7.28;2.17;;;17.50;90.60;;;17.86;65.45;99529.84;4933115;29;20141;-83
2023/07/05 04:06:16;;;;;;;5.75;1.77;;;17.30;89.50;;;17.63;64.93;99530.53;4927594;29;20481;-82
2023/07/05 04:08:44;;;;;;;6.03;1.90;;;17.10;89.10;;;17.54;65.16;99541.09;4946910;28;20054;-83
2023/07/05 04:11:11;;;;;;;6.05;2.08;;;16.90;89.80;;;17.62;65.30;99534.31;4935559;29;20138;-82
2023/07/05 04:13:39;;;;;;;5.63;1.90;;;16.90;90.00;;;17.58;64.81;99535.97;4937710;29;20055;-82
2023/07/05 04:16:11;;;;;;;7.40;2.30;;;16.90;89.70;;;17.57;64.67;99545.13;4939785;29;20071;-82
2023/07/05 04:18:40;;;;;;;5.22;2.13;;;16.90;89.40;;;17.68;64.80;99538.59;4931525;28;20043;-82
2023/07/05 04:21:10;;;;;;;4.65;2.30;;;17.00;89.70;;;17.69;64.10;99545.59;4933642;29;20126;-81
2023/07/05 04:23:37;;;;;;;5.65;2.20;;;17.00;88.90;;;17.73;63.76;99546.66;4939150;29;20477;-82
2023/07/05 04:26:07;;;;;;;5.10;2.10;;;17.00;88.50;;;17.74;63.51;99537.50;4939228;29;20126;-81
2023/07/05 04:28:36;;;;;;;4.47;2.00;;;17.00;88.30;;;17.75;63.89;99541.78;4950654;28;20492;-82
2023/07/05 04:31:05;;;;;;;4.85;2.47;;;17.00;88.70;;;17.78;63.40;99535.03;4933788;29;20046;-82
2023/07/05 04:33:32;;;;;;;5.85;2.17;;;17.00;88.30;;;17.75;62.46;99547.19;4938808;29;20126;-82
2023/07/05 04:36:02;;;;;;;5.47;2.40;;;16.90;87.50;;;17.50;63.18;99551.63;4939612;29;20207;-82
2023/07/05 04:38:33;;;;;;;7.20;2.30;;;16.80;87.70;;;17.39;63.40;99554.69;4924305;29;20082;-82
2023/07/05 04:41:00;;;;;;;6.25;2.33;;;16.70;87.90;;;17.44;63.63;99568.94;4922161;29;20071;-82
2023/07/05 04:43:28;;;;;;;4.80;2.30;;;16.70;88.30;;;17.33;63.42;99564.69;4930799;29;20507;-81
2023/07/05 04:45:58;;;;;;;4.60;2.35;;;16.70;87.90;;;17.32;64.19;99559.56;4938330;29;20048;-80
2023/07/05 04:48:28;;;;;;;6.65;2.42;;;16.60;89.00;;;17.29;63.73;99570.91;4943085;29;20122;-83
2023/07/05 04:50:57;;;;;;;5.45;2.50;;;16.60;88.40;;;17.29;63.29;99563.63;4941075;28;20564;-82
2023/07/05 04:53:27;;;;;;;5.13;2.47;;;16.50;88.30;;;17.17;63.32;99561.25;4944186;28;20133;-82
2023/07/05 04:55:58;;;;;;;7.20;2.72;;;16.40;88.10;;;17.17;63.49;99561.25;4931838;29;20048;-82
2023/07/05 04:58:27;;;;;;;6.85;3.03;;;16.40;88.10;;;17.34;63.26;99570.88;4941874;29;20530;-82
2023/07/05 05:01:02;;;;;;;6.13;2.90;;;16.60;88.10;;;17.56;62.98;99559.69;4931678;29;20040;-83
2023/07/05 05:03:30;;;;;;;7.80;3.00;;;16.90;87.60;;;17.61;62.91;99559.66;4944522;29;20117;-82
2023/07/05 05:05:57;;;;;;;5.35;2.65;;;16.90;87.50;;;17.78;63.19;99554.72;4939114;28;20048;-81
2023/07/05 05:08:30;;;;;;;5.70;3.15;;;17.10;87.70;;;17.94;61.42;99556.22;4937989;29;20067;-81
2023/07/05 05:11:02;;;;;;;6.50;2.95;;;17.30;85.60;;;18.07;61.13;99557.47;4928220;29;20131;-81
2023/07/05 05:13:32;;;;;;;6.00;2.80;;;17.50;85.00;;;18.19;60.32;99552.47;4932109;29;20521;-81
2023/07/05 05:16:00;;;;;;;5.55;2.97;;;17.60;83.80;;;18.32;60.56;99561.81;4933824;29;20067;-82
2023/07/05 05:18:31;;;;;;;7.25;3.58;;;17.80;83.70;;;18.47;60.26;99556.25;4941359;29;20122;-81
2023/07/05 05:20:59;;;;;;;6.88;3.30;;;18.00;83.30;;;18.63;59.70;99561.50;4936024;29;20534;-82
2023/07/05 05:23:30;;;;;;;7.50;3.50;;;18.20;82.80;;;18.81;58.92;99562.69;4952183;29;20039;-81
2023/07/05 05:25:59;;;;;;;5.70;2.83;;;18.30;81.60;;;18.76;58.35;99568.97;4941562;29;20732;-82
2023/07/05 05:28:26;;;;;;;7.22;3.22;;;18.30;80.80;;;18.76;58.64;99563.56;4946591;29;20751;-83
2023/07/05 05:31:03;;;;;;;7.05;3.20;;;18.30;81.10;;;18.69;58.33;99560.38;4930429;29;20050;-82
2023/07/05 05:33:31;;;;;;;6.03;3.03;;;18.20;81.00;;;18.68;59.29;99572.25;4937695;29;20191;-88
2023/07/05 05:35:58;;;;;;;6.60;3.00;;;18.30;81.20;;;18.87;58.89;99580.44;4945758;28;20047;-83
2023/07/05 05:38:25;;;;;;;7.55;3.40;;;18.50;81.30;;;18.87;58.94;99580.44;4944887;28;20464;-84
2023/07/05 05:41:02;;;;;;;7.97;3.38;;;18.50;81.40;;;18.89;58.21;99578.28;4935609;29;20122;-84
2023/07/05 05:43:30;;;;;;;7.93;3.22;;;18.50;80.40;;;19.06;57.90;99586.72;4943367;29;20051;-84
2023/07/05 05:45:57;;;;;;;7.32;3.25;;;18.70;79.60;;;19.18;58.93;99588.97;4941753;28;20050;-83
2023/07/05 05:48:24;;;;;;;7.85;3.05;;;18.90;80.50;;;18.90;57.70;99590.69;4931124;28;20122;-84
2023/07/05 05:50:54;;;;;;;6.05;2.92;;;18.60;79.10;;;18.90;58.38;99586.09;4931204;29;20531;-89
2023/07/05 05:53:21;;;;;;;6.65;3.30;;;18.50;80.20;;;18.79;58.12;99584.59;4929571;29;20147;-84
2023/07/05 05:55:48;;;;;;;6.35;2.90;;;18.30;80.20;;;18.64;58.33;99592.81;4936043;28;20165;-90
2023/07/05 05:58:20;;;;;;;8.00;3.60;;;18.20;80.40;;;18.41;56.86;99595.22;4934963;29;20056;-88
2023/07/05 06:00:48;;;;;;;6.47;3.08;;;18.00;79.50;;;18.19;58.98;99594.84;4931647;29;20052;-93
2023/07/05 06:03:15;;;;;;;7.45;3.28;;;17.80;81.20;;;18.20;59.09;99593.75;4933452;28;20043;-90
2023/07/05 06:05:43;;;;;;;9.02;3.80;;;17.70;81.80;;;18.21;58.91;99598.09;4924796;29;20044;-91
2023/07/05 06:08:10;;;;;;;5.55;3.20;;;17.70;81.80;;;18.19;59.40;99594.84;4933998;29;20071;-91
2023/07/05 06:10:38;;;;;;;5.90;2.85;;;17.60;82.20;;;18.14;59.08;99594.91;4933731;29;20051;-91
2023/07/05 06:13:05;;;;;;;6.32;3.00;;;17.60;81.80;;;17.82;58.42;99614.31;4941679;29;20098;-90
2023/07/05 06:15:35;;;;;;;7.38;3.55;;;17.40;80.90;;;17.80;58.07;99600.28;4945744;29;20563;-91
2023/07/05 06:18:02;;;;;;;7.07;3.25;;;17.30;80.80;;;17.62;58.45;99612.53;4942615;29;20043;-92
2023/07/05 06:20:33;;;;;;;7.35;3.67;;;17.20;80.80;;;17.50;59.16;99607.44;4942119;29;20126;-88
2023/07/05 06:23:03;;;;;;;5.18;2.85;;;17.10;81.80;;;17.36;59.12;99611.84;4933706;29;20060;-80
2023/07/05 06:25:30;;;;;;;13.05;3.42;;;16.90;81.80;;;17.46;59.38;99612.59;4935912;28;20051;-82
2023/07/05 06:27:58;;;;;;;6.25;2.90;;;17.00;82.20;;;17.42;57.77;99605.31;4933430;29;20122;-83
2023/07/05 06:30:27;;;;;;;5.43;2.70;;;17.00;80.60;;;17.41;59.03;99620.69;4951007;28;20150;-83
2023/07/05 06:32:56;;;;;;;11.63;3.42;;;16.90;81.80;;;17.24;58.20;99625.63;4942814;29;20043;-82
2023/07/05 06:35:24;;;;;;;8.68;3.33;;;16.80;80.60;;;17.20;59.47;99627.28;4934933;28;20508;-82
2023/07/05 06:37:51;;;;;;;6.93;2.90;;;16.70;82.20;;;17.41;59.96;99627.97;4928191;29;20052;-82
2023/07/05 06:40:18;;;;;;;5.63;2.95;;;16.90;83.30;;;17.48;58.95;99626.59;4936815;29;20871;-83
2023/07/05 06:42:45;;;;;;;9.23;3.17;;;17.00;81.60;;;17.73;60.33;99625.69;4939908;29;20054;-82
2023/07/05 06:45:16;;;;;;;4.83;2.70;;;17.40;83.30;;;17.66;58.25;99633.22;4933499;29;20074;-82
2023/07/05 06:47:45;;;;;;;8.23;2.50;;;17.40;80.20;;;17.46;56.73;99625.25;4928921;29;20464;-84
2023/07/05 06:50:14;;;;;;;8.73;2.75;;;17.30;78.50;;;17.16;58.40;99642.38;4930547;29;20036;-83
2023/07/05 06:52:41;;;;;;;8.40;2.80;;;17.00;79.90;;;17.25;58.27;99625.34;4938993;29;20132;-83
2023/07/05 06:55:11;;;;;;;6.50;2.70;;;17.00;80.40;;;17.45;58.38;99640.63;4932664;29;20419;-83
2023/07/05 06:57:38;;;;;;;7.05;2.90;;;17.10;80.60;;;17.49;58.04;99651.69;4930735;29;20412;-83
2023/07/05 07:00:09;;;;;;;6.68;2.42;;;17.10;80.00;;;17.50;57.48;99650.59;4929960;29;20044;-82
2023/07/05 07:02:36;;;;;;;6.87;2.67;;;17.20;79.40;;;17.48;56.46;99647.38;4931518;29;20070;-84
2023/07/05 07:05:04;;;;;;;9.93;2.63;;;17.20;78.20;;;17.42;57.63;99662.78;4944327;29;20094;-85
2023/07/05 07:07:33;;;;;;;6.60;2.63;;;17.10;79.30;;;17.55;58.35;99669.44;4935707;28;20128;-84
2023/07/05 07:10:03;;;;;;;8.57;2.67;;;17.20;80.40;;;17.48;57.14;99653.56;4929743;29;20126;-85
2023/07/05 07:12:30;;;;;;;8.23;2.60;;;17.20;79.00;;;17.39;57.25;99655.22;4934343;29;20788;-85
2023/07/05 07:14:57;;;;;;;5.53;2.40;;;17.10;78.70;;;17.42;57.81;99659.25;4946693;28;20407;-85
2023/07/05 07:17:25;;;;;;;6.75;2.35;;;17.10;79.80;;;17.17;56.16;99663.63;4939304;28;20044;-84
2023/07/05 07:19:52;;;;;;;6.68;2.60;;;16.90;77.40;;;17.15;56.19;99675.78;4933684;29;20071;-84
2023/07/05 07:22:19;;;;;;;5.72;2.53;;;16.80;78.00;;;17.15;57.00;99668.50;4940484;29;20043;-85
2023/07/05 07:24:51;;;;;;;6.32;2.47;;;16.80;78.60;;;17.39;56.77;99670.59;4930063;28;20095;-84
2023/07/05 07:27:18;;;;;;;7.05;2.78;;;17.00;78.70;;;17.46;57.40;99671.88;4934896;29;20094;-85
2023/07/05 07:29:46;;;;;;;7.88;2.53;;;17.10;79.20;;;17.36;56.73;99677.31;4936549;29;20055;-84
2023/07/05 07:32:13;;;;;;;6.70;2.58;;;17.10;78.30;;;17.34;56.71;99678.69;4936752;29;20047;-85
2023/07/05 07:34:40;;;;;;;5.13;2.17;;;17.00;78.40;;;17.29;57.26;99682.22;4934953;29;20059;-84
2023/07/05 07:37:08;;;;;;;7.18;2.20;;;16.90;79.00;;;17.13;58.08;99691.41;4924237;29;20054;-84
2023/07/05 07:39:35;;;;;;;5.55;2.22;;;16.80;79.80;;;17.14;58.95;99687.66;4933052;29;20051;-84
2023/07/05 07:42:04;;;;;;;8.30;2.30;;;16.80;81.00;;;17.05;58.93;99686.59;4932735;29;20462;-84
2023/07/05 07:44:32;;;;;;;7.75;2.30;;;16.60;81.10;;;16.91;59.52;99694.44;4932229;29;20079;-85
2023/07/05 07:47:00;;;;;;;7.15;2.45;;;16.50;81.80;;;16.82;59.39;99686.09;4933437;29;20050;-85
2023/07/05 07:49:27;;;;;;;5.85;2.45;;;16.40;82.00;;;16.72;59.80;99699.56;4936162;29;20147;-85
2023/07/05 07:51:54;;;;;;;6.72;2.55;;;16.20;82.30;;;16.81;60.11;99702.53;4925791;29;20048;-85
2023/07/05 07:54:26;;;;;;;7.60;2.10;;;16.30;83.10;;;16.56;59.71;99709.50;4929739;29;20473;-86
2023/07/05 07:56:56;;;;;;;6.55;2.20;;;16.20;82.10;;;16.63;60.21;99717.31;4936873;29;20507;-89
2023/07/05 07:59:25;;;;;;;8.25;2.50;;;16.20;82.70;;;16.58;59.38;99728.06;4960124;28;20567;-85
2023/07/05 08:01:53;;;;;;;6.47;2.15;;;16.10;82.00;;;16.53;59.45;99728.06;4934821;29;20134;-84
2023/07/05 08:04:20;;;;;;;8.77;2.20;;;16.20;82.10;;;16.59;59.89;99732.38;4933363;28;20063;-84
2023/07/05 08:06:51;;;;;;;5.18;2.10;;;16.30;82.50;;;16.70;59.07;99734.81;4927220;28;20056;-84
2023/07/05 08:09:22;;;;;;;5.13;2.05;;;16.30;81.80;;;16.80;59.33;99738.63;4923475;29;20510;-83
2023/07/05 08:11:50;;;;;;;9.15;2.03;;;16.40;81.80;;;16.84;59.25;99724.34;4929080;29;20110;-84
2023/07/05 08:14:18;;;;;;;11.48;2.35;;;16.60;81.40;;;16.80;57.66;99750.19;4938146;29;20452;-84
2023/07/05 08:16:47;;;;;;;7.88;2.08;;;16.60;79.30;;;16.97;59.34;99756.09;4938704;28;20043;-84
2023/07/05 08:19:15;;;;;;;6.82;1.83;;;16.70;81.40;;;17.10;59.31;99748.56;4930820;28;20036;-84
2023/07/05 08:21:45;;;;;;;4.80;1.95;;;16.80;81.00;;;17.14;58.88;99752.31;4935450;29;20054;-84
2023/07/05 08:24:12;;;;;;;5.88;2.30;;;16.90;80.80;;;17.20;59.03;99762.00;4936722;29;20059;-83
2023/07/05 08:26:41;;;;;;;3.83;1.90;;;17.00;80.80;;;17.10;58.36;99754.75;4930737;29;20130;-87
2023/07/05 08:29:09;;;;;;;8.35;1.92;;;16.80;79.80;;;17.13;58.62;99748.81;4936042;29;20091;-91
2023/07/05 08:31:37;;;;;;;9.57;2.38;;;16.80;80.40;;;17.09;57.60;99757.72;4945916;28;20488;-91
2023/07/05 08:34:06;;;;;;;5.78;2.10;;;16.80;79.30;;;17.01;58.01;99771.72;4944980;29;20126;-90
2023/07/05 08:36:36;;;;;;;7.95;1.67;;;16.70;79.60;;;17.03;57.82;99766.88;4944779;29;20051;-92
2023/07/05 08:39:06;;;;;;;4.10;1.77;;;16.70;79.80;;;17.01;57.67;99763.66;4932991;29;20064;-88
2023/07/05 08:42:02;;;;;;;4.88;1.77;;;16.70;79.50;;;17.10;57.50;99772.81;4935877;29;20051;-83
2023/07/05 08:44:45;;;;;;;7.53;1.80;;;16.70;79.60;;;17.15;57.73;99775.50;4957001;23;20050;-82
2023/07/05 08:47:22;;;;;;;8.40;1.83;;;16.70;80.00;;;17.09;56.53;99768.50;4949231;28;20077;-84
2023/07/05 08:50:10;;;;;;;5.60;1.88;;;16.60;79.40;;;16.97;57.37;99790.31;4970328;28;20533;-83
2023/07/05 08:52:43;;;;;;;5.45;1.80;;;16.60;79.40;;;17.02;57.44;99781.44;4950312;28;20134;-84
2023/07/05 08:55:17;;;;;;;5.28;1.60;;;16.60;79.40;;;17.04;57.10;99790.06;4966637;28;20126;-83
2023/07/05 08:57:54;;;;;;;4.97;1.73;;;16.70;79.00;;;16.89;56.48;99789.00;4953275;28;20043;-83
2023/07/05 09:00:27;;;;;;;8.07;1.90;;;16.60;78.20;;;16.90;56.72;99795.19;4951798;28;20499;-84
2023/07/05 09:02:54;;;;;;;6.88;1.70;;;16.50;78.60;;;17.00;57.08;99800.56;4949798;28;20047;-83
2023/07/05 09:05:34;;;;;;;7.03;1.88;;;16.60;79.10;;;17.05;57.06;99789.78;4960166;28;20047;-84
2023/07/05 09:08:20;;;;;;;6.38;2.03;;;16.60;79.10;;;16.92;56.20;99803.78;4941568;28;20137;-84
2023/07/05 09:10:56;;;;;;;6.82;1.85;;;16.60;78.00;;;16.89;56.08;99812.41;4953880;28;20047;-84
2023/07/05 09:13:32;;;;;;;5.43;2.20;;;16.60;77.40;;;16.83;55.91;99808.91;4958406;28;20078;-84
2023/07/05 09:16:11;;;;;;;4.72;1.88;;;16.50;77.40;;;16.94;57.04;99810.53;4944012;28;20118;-84
2023/07/05 09:18:57;;;;;;;9.82;1.98;;;16.60;78.80;;;16.98;55.91;99806.22;4953325;28;20067;-84
2023/07/05 09:21:33;;;;;;;6.25;1.55;;;16.70;77.40;;;16.94;56.45;99810.53;4952308;28;20075;-84
2023/07/05 09:24:13;;;;;;;6.18;1.80;;;16.70;77.70;;;16.99;56.42;99821.31;4958656;28;20636;-84
2023/07/05 09:26:46;;;;;;;5.90;1.92;;;16.80;77.70;;;17.06;56.68;99815.63;4950278;28;20074;-84
2023/07/05 09:29:30;;;;;;;12.07;2.08;;;16.90;77.90;;;17.26;56.05;99812.13;4954544;28;20074;-81
2023/07/05 09:32:02;;;;;;;6.68;1.63;;;17.10;77.40;;;17.40;55.48;99818.56;4951544;28;20039;-86
2023/07/05 09:34:38;;;;;;;8.25;1.55;;;17.40;76.00;;;17.63;56.66;99816.38;4953112;28;20047;-86
2023/07/05 09:37:17;;;;;;;8.13;2.05;;;17.60;77.00;;;17.79;55.40;99798.28;4947544;28;20031;-87
2023/07/05 09:40:15;;;;;;;8.07;1.90;;;17.80;75.60;;;17.81;55.54;99813.09;4936959;28;20039;-87
2023/07/05 09:42:49;;;;;;;6.15;1.80;;;17.90;75.30;;;18.03;58.37;99818.16;4946879;28;20071;-87
2023/07/05 09:45:18;;;;;;;4.47;1.90;;;18.20;77.70;;;18.14;54.80;99816.22;4945515;28;20143;-87
2023/07/05 09:47:50;;;;;;;11.38;1.95;;;18.30;74.10;;;18.08;54.42;99834.31;4942420;28;20098;-88
2023/07/05 09:50:20;;;;;;;4.78;1.98;;;18.20;73.40;;;17.95;54.58;99835.72;4945252;28;20055;-87
2023/07/05 09:52:58;;;;;;;5.22;2.00;;;18.10;73.70;;;18.00;54.39;99841.09;4951914;28;20110;-88
2023/07/05 09:55:26;;;;;;;9.13;2.05;;;18.10;73.90;;;18.00;54.30;99832.19;4948984;28;20043;-89
2023/07/05 09:57:54;;;;;;;9.88;1.73;;;18.10;73.50;;;18.15;55.66;99837.50;4949130;28;20049;-87
2023/07/05 10:00:28;;;;;;;11.43;2.35;;;18.30;75.40;;;18.15;53.32;99842.13;4950903;28;20046;-87
2023/07/05 10:03:05;;;;;;;13.00;1.90;;;18.30;72.20;;;18.14;54.42;99846.69;4941932;28;21276;-89
2023/07/05 10:05:33;;;;;;;7.38;2.03;;;18.30;73.50;;;18.17;54.84;99859.66;4948184;28;20810;-88
2023/07/05 10:08:05;;;;;;;11.27;2.30;;;18.30;73.60;;;18.16;54.32;99849.16;4951690;28;20039;-88
2023/07/05 10:10:37;;;;;;;7.30;1.95;;;18.30;73.20;;;18.10;52.49;99852.94;4950394;28;20050;-87
2023/07/05 10:13:22;;;;;;;6.43;1.83;;;18.20;71.00;;;18.05;53.58;99869.13;4952729;28;20085;-87
2023/07/05 10:15:52;;;;;;;9.68;1.92;;;18.10;72.60;;;18.12;55.16;99875.88;4941883;28;20147;-87
2023/07/05 10:18:28;;;;;;;5.57;1.80;;;18.10;74.50;;;18.11;53.67;99876.97;4949275;28;20058;-88
2023/07/05 10:20:58;;;;;;;13.73;2.15;;;18.10;73.10;;;17.98;52.89;99872.94;4953689;28;20043;-88
2023/07/05 10:23:30;;;;;;;9.57;1.83;;;18.00;71.70;;;17.83;52.74;99881.09;4944641;28;20408;-87
2023/07/05 10:26:02;;;;;;;9.85;2.20;;;17.90;71.70;;;17.97;53.60;99884.03;4955328;28;20074;-87
2023/07/05 10:28:31;;;;;;;18.50;2.50;;;18.00;72.90;;;18.10;53.60;99885.31;4946168;28;20146;-88
2023/07/05 10:31:01;;;;;;;7.05;1.73;;;18.10;72.60;;;18.32;54.29;99899.28;4955109;28;20491;-86
2023/07/05 10:33:31;;;;;;;8.55;2.40;;;18.50;73.50;;;18.32;51.68;99887.69;4942696;28;20043;-84